Time;durP1;ratioP1;P1;durP2;ratioP2;P2;SDS_P1;SDS_P2;PMS_P1;PMS_P2;Temp;Humidity;BMP_temperature;BMP_pressure;BME280_temperature;BME280_humidity;BME280_pressure;Samples;Min_cycle;Max_cycle;Signal;HPM_P1;HPM_P2
2023/01/09 00:00:52;;;;;;;62.13;7.80;;;;;;;;;;5070580;28;20454;-69
2023/01/09 00:03:20;;;;;;;62.07;7.33;;;;;;;;;;5071382;28;20980;-69
2023/01/09 00:05:47;;;;;;;61.67;6.87;;;;;;;;;;5071198;28;20479;-69
2023/01/09 00:08:14;;;;;;;60.77;6.53;;;;;;;;;;5071317;28;20451;-69
2023/01/09 00:10:41;;;;;;;62.30;6.90;;;;;;;;;;5070593;28;20501;-69
2023/01/09 00:13:10;;;;;;;61.43;6.27;;;;;;;;;;5071138;28;20475;-69
2023/01/09 00:15:37;;;;;;;61.50;6.00;;;;;;;;;;5071302;28;20612;-69
2023/01/09 00:18:06;;;;;;;60.90;6.37;;;;;;;;;;5071071;28;20447;-69
2023/01/09 00:20:33;;;;;;;60.30;6.37;;;;;;;;;;5070575;28;20454;-69
2023/01/09 00:23:00;;;;;;;59.40;5.40;;;;;;;;;;5071057;28;20554;-70
2023/01/09 00:25:27;;;;;;;60.77;6.00;;;;;;;;;;5070957;28;20871;-70
2023/01/09 00:27:54;;;;;;;59.47;5.10;;;;;;;;;;5072555;28;20451;-69
2023/01/09 00:30:21;;;;;;;60.23;6.27;;;;;;;;;;5073965;28;20625;-69
2023/01/09 00:32:48;;;;;;;61.70;5.27;;;;;;;;;;5074619;28;20463;-70
2023/01/09 00:35:18;;;;;;;59.97;5.30;;;;;;;;;;5074493;28;20451;-70
2023/01/09 00:37:45;;;;;;;59.13;5.40;;;;;;;;;;5074574;28;20455;-70
2023/01/09 00:40:14;;;;;;;59.47;5.20;;;;;;;;;;5073607;28;20969;-70
2023/01/09 00:42:41;;;;;;;60.47;5.10;;;;;;;;;;5074454;28;20467;-69
2023/01/09 00:45:10;;;;;;;59.10;4.90;;;;;;;;;;5074198;28;20932;-69
2023/01/09 00:47:39;;;;;;;60.43;5.33;;;;;;;;;;5074398;28;20465;-70
2023/01/09 00:50:08;;;;;;;59.90;5.10;;;;;;;;;;5073538;28;20446;-70
2023/01/09 00:52:37;;;;;;;60.40;5.20;;;;;;;;;;5073735;28;20466;-69
2023/01/09 00:55:05;;;;;;;60.07;5.03;;;;;;;;;;5074343;28;20549;-69
2023/01/09 00:57:32;;;;;;;58.63;4.67;;;;;;;;;;5074296;28;20439;-69
2023/01/09 01:00:00;;;;;;;59.97;5.10;;;;;;;;;;5073389;28;20439;-69
2023/01/09 01:02:27;;;;;;;59.53;4.57;;;;;;;;;;5074026;28;20467;-69
2023/01/09 01:07:42;;;;;;;60.10;4.80;;;;;;;;;;5074184;28;20465;-69
2023/01/09 01:10:11;;;;;;;59.70;4.33;;;;;;;;;;5073329;28;20479;-69
2023/01/09 01:12:39;;;;;;;59.30;4.80;;;;;;;;;;5074007;28;20469;-69
2023/01/09 01:15:07;;;;;;;59.50;4.50;;;;;;;;;;5073788;28;20811;-69
2023/01/09 01:17:34;;;;;;;58.70;3.97;;;;;;;;;;5073610;28;20440;-69
2023/01/09 01:20:01;;;;;;;58.57;4.07;;;;;;;;;;5073178;28;20447;-69
2023/01/09 01:22:28;;;;;;;61.93;4.30;;;;;;;;;;5073772;28;20574;-70
2023/01/09 01:24:57;;;;;;;58.97;4.50;;;;;;;;;;5073503;28;20455;-70
2023/01/09 01:27:24;;;;;;;58.40;4.40;;;;;;;;;;5073754;28;20483;-70
2023/01/09 01:29:51;;;;;;;57.93;4.10;;;;;;;;;;5072699;28;20447;-70
2023/01/09 01:32:18;;;;;;;58.70;3.50;;;;;;;;;;5073347;28;20848;-70
2023/01/09 01:34:45;;;;;;;58.67;3.60;;;;;;;;;;5073607;28;20448;-70
2023/01/09 01:37:13;;;;;;;58.10;3.20;;;;;;;;;;5073519;28;20448;-70
2023/01/09 01:39:40;;;;;;;59.23;3.23;;;;;;;;;;5071702;28;20444;-70
2023/01/09 01:42:08;;;;;;;57.53;3.10;;;;;;;;;;5073133;28;20478;-70
2023/01/09 01:44:54;;;;;;;57.80;3.07;;;;;;;;;;5073202;28;20458;-70
2023/01/09 01:47:24;;;;;;;57.90;3.20;;;;;;;;;;5073088;28;21029;-70
2023/01/09 01:49:51;;;;;;;58.00;3.07;;;;;;;;;;5072398;28;20466;-70
2023/01/09 01:52:18;;;;;;;57.90;3.10;;;;;;;;;;5073100;28;20463;-70
2023/01/09 01:54:46;;;;;;;57.83;3.20;;;;;;;;;;5073079;28;20457;-70
2023/01/09 01:57:15;;;;;;;57.80;3.63;;;;;;;;;;5072989;28;20443;-70
2023/01/09 01:59:48;;;;;;;58.37;3.57;;;;;;;;;;5072363;28;20454;-70
2023/01/09 02:02:18;;;;;;;57.70;3.17;;;;;;;;;;5072864;28;20992;-70
2023/01/09 02:04:45;;;;;;;57.83;3.23;;;;;;;;;;5073078;28;20447;-70
2023/01/09 02:07:12;;;;;;;58.30;3.13;;;;;;;;;;5072992;28;20479;-70
2023/01/09 02:09:40;;;;;;;57.87;3.03;;;;;;;;;;5071953;28;20443;-70
2023/01/09 02:12:22;;;;;;;58.30;2.97;;;;;;;;;;5072953;28;20974;-70
2023/01/09 02:14:50;;;;;;;58.40;3.40;;;;;;;;;;5072718;28;20466;-70
2023/01/09 02:17:22;;;;;;;57.90;3.20;;;;;;;;;;5072901;28;20439;-71
2023/01/09 02:20:09;;;;;;;58.23;3.10;;;;;;;;;;5071868;28;20448;-70
2023/01/09 02:22:37;;;;;;;58.90;2.87;;;;;;;;;;5072706;28;20471;-70
2023/01/09 02:25:13;;;;;;;57.90;3.10;;;;;;;;;;5072580;28;20836;-70
2023/01/09 02:27:50;;;;;;;58.37;2.97;;;;;;;;;;5072802;28;20485;-70
2023/01/09 02:30:29;;;;;;;57.80;2.90;;;;;;;;;;5071673;28;20457;-70
2023/01/09 02:33:02;;;;;;;57.87;3.00;;;;;;;;;;5072594;28;20467;-70
2023/01/09 02:35:44;;;;;;;57.60;2.93;;;;;;;;;;5072370;28;20443;-70
2023/01/09 02:38:17;;;;;;;57.80;2.63;;;;;;;;;;5069934;28;20448;-70
2023/01/09 02:40:47;;;;;;;58.00;2.70;;;;;;;;;;5071420;28;20449;-70
2023/01/09 02:43:15;;;;;;;58.10;3.10;;;;;;;;;;5072516;28;20471;-70
2023/01/09 02:45:43;;;;;;;57.67;3.00;;;;;;;;;;5072322;28;20446;-70
2023/01/09 02:48:11;;;;;;;57.97;3.03;;;;;;;;;;5068138;28;20483;-70
2023/01/09 02:50:42;;;;;;;57.40;2.70;;;;;;;;;;5071198;28;20447;-71
2023/01/09 02:53:19;;;;;;;57.20;2.80;;;;;;;;;;5072094;28;20471;-70
2023/01/09 02:55:51;;;;;;;57.47;3.00;;;;;;;;;;5072062;28;20457;-70
2023/01/09 02:58:25;;;;;;;58.30;2.70;;;;;;;;;;5071840;28;20539;-70
2023/01/09 03:00:58;;;;;;;57.07;2.60;;;;;;;;;;5071208;28;20448;-70
2023/01/09 03:03:30;;;;;;;57.43;2.80;;;;;;;;;;5072014;28;20463;-70
2023/01/09 03:06:02;;;;;;;59.03;3.20;;;;;;;;;;5072006;28;20860;-70
2023/01/09 03:08:32;;;;;;;57.27;2.60;;;;;;;;;;5071616;28;20459;-70
2023/01/09 03:11:00;;;;;;;59.27;2.80;;;;;;;;;;5071799;28;20456;-70
2023/01/09 03:13:31;;;;;;;56.97;2.63;;;;;;;;;;5071926;28;20464;-70
2023/01/09 03:16:01;;;;;;;57.87;2.80;;;;;;;;;;5072053;28;20829;-70
2023/01/09 03:18:29;;;;;;;57.37;2.80;;;;;;;;;;5071421;28;20452;-71
2023/01/09 03:20:56;;;;;;;57.37;2.63;;;;;;;;;;5071206;28;20456;-71
2023/01/09 03:23:23;;;;;;;56.70;2.63;;;;;;;;;;5071501;28;20479;-70
2023/01/09 03:25:50;;;;;;;57.60;2.90;;;;;;;;;;5071742;28;20458;-70
2023/01/09 03:28:22;;;;;;;56.50;2.50;;;;;;;;;;5071633;28;20998;-69
2023/01/09 03:30:49;;;;;;;57.70;2.80;;;;;;;;;;5071002;28;20447;-69
2023/01/09 03:33:18;;;;;;;57.37;2.50;;;;;;;;;;5071742;28;20468;-69
2023/01/09 03:35:45;;;;;;;57.50;2.50;;;;;;;;;;5071399;28;20814;-69
2023/01/09 03:38:12;;;;;;;57.60;2.67;;;;;;;;;;5071693;28;20448;-69
2023/01/09 03:40:39;;;;;;;58.60;2.67;;;;;;;;;;5071069;28;20477;-69
2023/01/09 03:43:06;;;;;;;57.90;2.83;;;;;;;;;;5071568;28;20463;-69
2023/01/09 03:45:33;;;;;;;58.13;2.70;;;;;;;;;;5071517;28;20447;-69
2023/01/09 03:48:00;;;;;;;59.07;2.90;;;;;;;;;;5071238;28;20483;-69
2023/01/09 03:50:29;;;;;;;57.90;2.53;;;;;;;;;;5070618;28;20447;-69
2023/01/09 03:52:56;;;;;;;56.40;2.40;;;;;;;;;;5071508;28;20817;-69
2023/01/09 03:55:23;;;;;;;56.50;2.40;;;;;;;;;;5071479;28;20466;-69
2023/01/09 03:57:51;;;;;;;57.80;2.60;;;;;;;;;;5071350;28;20519;-69
2023/01/09 04:00:19;;;;;;;57.90;2.63;;;;;;;;;;5070605;28;20461;-69
2023/01/09 04:02:46;;;;;;;57.50;2.60;;;;;;;;;;5072109;28;20843;-69
2023/01/09 04:05:13;;;;;;;57.33;2.70;;;;;;;;;;5075579;28;20457;-69
2023/01/09 04:07:41;;;;;;;58.10;2.50;;;;;;;;;;5075455;28;20987;-69
2023/01/09 04:10:09;;;;;;;57.33;2.50;;;;;;;;;;5074373;28;20456;-69
2023/01/09 04:12:36;;;;;;;57.17;2.60;;;;;;;;;;5075073;28;20471;-69
2023/01/09 04:15:04;;;;;;;56.80;2.60;;;;;;;;;;5075206;28;20447;-69
2023/01/09 04:17:31;;;;;;;57.30;2.70;;;;;;;;;;5075013;28;20446;-69
2023/01/09 04:19:58;;;;;;;57.50;2.40;;;;;;;;;;5074096;28;20979;-68
2023/01/09 04:22:25;;;;;;;57.53;2.60;;;;;;;;;;5074884;28;20496;-69
2023/01/09 04:24:53;;;;;;;57.27;2.53;;;;;;;;;;5074812;28;20570;-69
2023/01/09 04:27:21;;;;;;;57.60;2.20;;;;;;;;;;5074599;28;20483;-69
2023/01/09 04:29:48;;;;;;;57.30;2.60;;;;;;;;;;5073917;28;20444;-69
2023/01/09 04:32:15;;;;;;;56.97;2.20;;;;;;;;;;5074468;28;20471;-69
2023/01/09 04:34:42;;;;;;;57.30;2.40;;;;;;;;;;5074704;28;20479;-69
2023/01/09 04:37:09;;;;;;;57.40;2.47;;;;;;;;;;5074655;28;20448;-69
2023/01/09 04:39:37;;;;;;;56.37;2.30;;;;;;;;;;5073831;28;20839;-69
2023/01/09 04:42:05;;;;;;;57.40;2.40;;;;;;;;;;5074417;28;20463;-68
2023/01/09 04:44:32;;;;;;;59.30;2.77;;;;;;;;;;5074477;28;20451;-69
2023/01/09 04:46:59;;;;;;;57.50;2.50;;;;;;;;;;5074254;28;21022;-68
2023/01/09 04:49:27;;;;;;;57.30;2.50;;;;;;;;;;5073741;28;20459;-69
2023/01/09 04:51:54;;;;;;;57.37;2.47;;;;;;;;;;5074336;28;20470;-69
2023/01/09 04:54:21;;;;;;;60.47;2.50;;;;;;;;;;5074332;28;20454;-69
2023/01/09 04:56:48;;;;;;;57.40;2.40;;;;;;;;;;5074241;28;20444;-69
2023/01/09 04:59:17;;;;;;;57.27;2.40;;;;;;;;;;5073304;28;20943;-69
2023/01/09 05:01:44;;;;;;;57.27;2.30;;;;;;;;;;5074222;28;20470;-69
2023/01/09 05:04:11;;;;;;;57.33;2.53;;;;;;;;;;5074043;28;20969;-69
2023/01/09 05:06:39;;;;;;;57.17;2.33;;;;;;;;;;5074086;28;20542;-69
2023/01/09 05:09:06;;;;;;;57.50;2.50;;;;;;;;;;5073162;28;20820;-69
2023/01/09 05:11:33;;;;;;;57.60;2.50;;;;;;;;;;5073847;28;20473;-70
2023/01/09 05:14:00;;;;;;;59.87;2.50;;;;;;;;;;5073880;28;20458;-70
2023/01/09 05:16:30;;;;;;;57.37;2.60;;;;;;;;;;5074068;28;20474;-70
2023/01/09 05:18:57;;;;;;;58.37;2.53;;;;;;;;;;5073110;28;20458;-69
2023/01/09 05:21:24;;;;;;;57.77;2.60;;;;;;;;;;5073899;28;20822;-69
2023/01/09 05:23:51;;;;;;;57.27;2.43;;;;;;;;;;5073841;28;21057;-70
2023/01/09 05:26:18;;;;;;;57.47;2.67;;;;;;;;;;5073699;28;20459;-69
2023/01/09 05:28:45;;;;;;;57.67;2.70;;;;;;;;;;5072994;28;20479;-69
2023/01/09 05:31:12;;;;;;;57.87;2.40;;;;;;;;;;5073546;28;20451;-70
2023/01/09 05:33:41;;;;;;;57.63;2.77;;;;;;;;;;5073755;28;20454;-70
2023/01/09 05:36:08;;;;;;;56.60;2.43;;;;;;;;;;5073644;28;20505;-70
2023/01/09 05:38:35;;;;;;;57.50;2.70;;;;;;;;;;5072455;28;20954;-69
2023/01/09 05:41:02;;;;;;;57.17;2.50;;;;;;;;;;5073459;28;20443;-70
2023/01/09 05:43:29;;;;;;;58.27;2.60;;;;;;;;;;5073192;28;20973;-69
2023/01/09 05:45:56;;;;;;;57.57;2.50;;;;;;;;;;5073373;28;20458;-70
2023/01/09 05:48:24;;;;;;;57.47;2.67;;;;;;;;;;5072981;28;20489;-70
2023/01/09 05:50:52;;;;;;;58.20;2.80;;;;;;;;;;5072299;28;20455;-69
2023/01/09 05:53:19;;;;;;;58.83;2.53;;;;;;;;;;5072778;28;21037;-70
2023/01/09 05:55:46;;;;;;;57.40;2.40;;;;;;;;;;5073194;28;20443;-70
2023/01/09 05:58:14;;;;;;;58.27;3.00;;;;;;;;;;5073039;28;20450;-70
2023/01/09 06:00:41;;;;;;;57.77;2.70;;;;;;;;;;5072355;28;20819;-70
2023/01/09 06:03:08;;;;;;;57.30;2.80;;;;;;;;;;5072758;28;20471;-69
2023/01/09 06:05:35;;;;;;;57.47;2.60;;;;;;;;;;5072788;28;20453;-69
2023/01/09 06:08:03;;;;;;;61.60;3.10;;;;;;;;;;5072511;28;21007;-69
2023/01/09 06:10:31;;;;;;;57.70;2.67;;;;;;;;;;5071994;28;20554;-70
2023/01/09 06:12:58;;;;;;;58.10;3.00;;;;;;;;;;5073166;28;20469;-70
2023/01/09 06:15:25;;;;;;;59.37;2.80;;;;;;;;;;5072564;28;20451;-71
2023/01/09 06:17:52;;;;;;;58.80;3.00;;;;;;;;;;5072590;28;21061;-70
2023/01/09 06:20:19;;;;;;;58.20;3.20;;;;;;;;;;5071632;28;20439;-70
2023/01/09 06:22:46;;;;;;;57.40;2.60;;;;;;;;;;5072605;28;20834;-70
2023/01/09 06:25:15;;;;;;;60.63;2.80;;;;;;;;;;5071828;28;20459;-70
2023/01/09 06:27:42;;;;;;;57.53;3.20;;;;;;;;;;5072549;28;20509;-70
2023/01/09 06:30:09;;;;;;;58.10;3.07;;;;;;;;;;5071688;28;20451;-69
2023/01/09 06:32:36;;;;;;;60.03;2.80;;;;;;;;;;5072264;28;20471;-70
2023/01/09 06:35:04;;;;;;;57.77;2.93;;;;;;;;;;5072092;28;20443;-70
2023/01/09 06:37:32;;;;;;;58.27;2.90;;;;;;;;;;5072157;28;20451;-69
2023/01/09 06:39:59;;;;;;;59.60;3.30;;;;;;;;;;5071588;28;20458;-70
2023/01/09 06:42:27;;;;;;;59.37;2.70;;;;;;;;;;5072213;28;20857;-70
2023/01/09 06:44:54;;;;;;;58.30;3.27;;;;;;;;;;5072434;28;20444;-70
2023/01/09 06:47:21;;;;;;;59.03;3.60;;;;;;;;;;5071894;28;20455;-70
2023/01/09 06:49:48;;;;;;;59.00;2.90;;;;;;;;;;5071548;28;20451;-70
2023/01/09 06:52:16;;;;;;;58.03;2.93;;;;;;;;;;5072205;28;20470;-69
2023/01/09 06:54:43;;;;;;;58.90;2.53;;;;;;;;;;5072059;28;20447;-70
2023/01/09 06:57:10;;;;;;;57.97;3.00;;;;;;;;;;5072124;28;20801;-70
2023/01/09 06:59:38;;;;;;;58.77;3.40;;;;;;;;;;5071209;28;20447;-70
2023/01/09 07:02:05;;;;;;;59.20;4.17;;;;;;;;;;5071656;28;20979;-69
2023/01/09 07:04:32;;;;;;;59.90;3.80;;;;;;;;;;5072058;28;20457;-70
2023/01/09 07:06:59;;;;;;;61.43;3.80;;;;;;;;;;5072033;28;20447;-69
2023/01/09 07:09:26;;;;;;;58.40;3.23;;;;;;;;;;5070989;28;20483;-70
2023/01/09 07:11:53;;;;;;;58.57;3.40;;;;;;;;;;5071928;28;20845;-69
2023/01/09 07:14:21;;;;;;;58.00;3.27;;;;;;;;;;5071822;28;20478;-70
2023/01/09 07:16:49;;;;;;;58.60;2.97;;;;;;;;;;5071680;28;20447;-69
2023/01/09 07:19:16;;;;;;;58.57;3.23;;;;;;;;;;5070932;28;20451;-69
2023/01/09 07:21:43;;;;;;;58.03;2.90;;;;;;;;;;5071680;28;20467;-70
2023/01/09 07:24:10;;;;;;;58.70;3.43;;;;;;;;;;5071813;28;20443;-69
2023/01/09 07:26:37;;;;;;;59.23;3.17;;;;;;;;;;5071785;28;20956;-70
2023/01/09 07:29:04;;;;;;;59.23;3.00;;;;;;;;;;5070791;28;20482;-70
2023/01/09 07:31:32;;;;;;;58.20;3.37;;;;;;;;;;5071426;28;21002;-69
2023/01/09 07:34:00;;;;;;;58.63;3.50;;;;;;;;;;5071792;28;20451;-69
2023/01/09 07:36:27;;;;;;;58.33;3.33;;;;;;;;;;5071489;28;20452;-70
2023/01/09 07:38:54;;;;;;;60.97;3.47;;;;;;;;;;5073879;28;20443;-69
2023/01/09 07:41:21;;;;;;;58.80;3.60;;;;;;;;;;5075593;28;20447;-70
2023/01/09 07:43:48;;;;;;;59.37;3.73;;;;;;;;;;5075360;28;20804;-69
2023/01/09 07:46:15;;;;;;;58.88;3.40;;;;;;;;;;5075814;28;20450;-70
2023/01/09 07:48:42;;;;;;;59.70;2.90;;;;;;;;;;5074746;28;20229;-70
2023/01/09 07:51:11;;;;;;;60.00;3.00;;;;;;;;;;5075365;28;20537;-70
2023/01/09 07:53:38;;;;;;;58.30;3.00;;;;;;;;;;5075337;28;20455;-70
2023/01/09 07:56:06;;;;;;;59.00;3.30;;;;;;;;;;5075250;28;20443;-71
2023/01/09 07:58:33;;;;;;;58.40;3.20;;;;;;;;;;5074908;28;20457;-70
2023/01/09 08:01:00;;;;;;;64.07;3.23;;;;;;;;;;5075306;28;20458;-70
2023/01/09 08:03:27;;;;;;;58.57;3.30;;;;;;;;;;5075032;28;20467;-70
2023/01/09 08:05:54;;;;;;;58.30;3.30;;;;;;;;;;5075115;28;20453;-70
2023/01/09 08:08:23;;;;;;;61.20;3.83;;;;;;;;;;5074973;28;20573;-70
2023/01/09 08:10:50;;;;;;;58.97;3.13;;;;;;;;;;5074220;28;20443;-71
2023/01/09 08:13:17;;;;;;;58.13;2.90;;;;;;;;;;5074809;28;21002;-70
2023/01/09 08:15:44;;;;;;;59.37;3.20;;;;;;;;;;5074954;28;20453;-70
2023/01/09 08:18:11;;;;;;;59.70;3.40;;;;;;;;;;5074950;28;20447;-70
2023/01/09 08:20:38;;;;;;;57.97;2.80;;;;;;;;;;5074144;28;20447;-71
2023/01/09 08:23:05;;;;;;;58.20;3.10;;;;;;;;;;5074728;28;20474;-70
2023/01/09 08:25:34;;;;;;;61.20;2.90;;;;;;;;;;5074517;28;20982;-71
2023/01/09 08:28:01;;;;;;;57.57;2.80;;;;;;;;;;5074940;28;20479;-70
2023/01/09 08:30:28;;;;;;;57.70;3.20;;;;;;;;;;5074048;28;20452;-70
2023/01/09 08:32:55;;;;;;;59.50;3.20;;;;;;;;;;5074667;28;20478;-71
2023/01/09 08:35:22;;;;;;;59.90;3.27;;;;;;;;;;5074628;28;20477;-70
2023/01/09 08:37:49;;;;;;;58.67;2.90;;;;;;;;;;5074435;28;20457;-70
2023/01/09 08:40:17;;;;;;;58.60;3.10;;;;;;;;;;5074021;28;20804;-70
2023/01/09 08:48:15;;;;;;;58.50;2.90;;;;;;;;;;5073457;28;20482;-70
2023/01/09 08:50:43;;;;;;;58.87;3.10;;;;;;;;;;5073576;28;20455;-70
2023/01/09 08:53:10;;;;;;;58.67;3.40;;;;;;;;;;5074373;28;20525;-70
2023/01/09 08:55:37;;;;;;;64.03;3.20;;;;;;;;;;5074380;28;20450;-71
2023/01/09 08:58:05;;;;;;;58.67;3.37;;;;;;;;;;5071925;28;20453;-71
2023/01/09 09:00:33;;;;;;;59.00;2.97;;;;;;;;;;5050723;28;20452;-69
2023/01/09 09:03:00;;;;;;;59.37;3.13;;;;;;;;;;5052536;28;20469;-70
2023/01/09 09:05:29;;;;;;;59.00;3.30;;;;;;;;;;5053445;28;20674;-70
2023/01/09 09:07:56;;;;;;;59.43;3.30;;;;;;;;;;5053388;28;20446;-70
2023/01/09 09:10:25;;;;;;;60.37;3.50;;;;;;;;;;5052818;28;20444;-70
2023/01/09 09:12:53;;;;;;;59.70;3.23;;;;;;;;;;5053206;28;20473;-70
2023/01/09 09:15:23;;;;;;;60.97;3.20;;;;;;;;;;5053443;28;20453;-70
2023/01/09 09:17:52;;;;;;;60.90;3.30;;;;;;;;;;5053504;28;20445;-70
2023/01/09 09:20:19;;;;;;;61.83;3.20;;;;;;;;;;5052934;28;20459;-70
2023/01/09 09:22:47;;;;;;;58.47;2.70;;;;;;;;;;5053503;28;20476;-70
2023/01/09 09:25:14;;;;;;;60.77;3.50;;;;;;;;;;5053323;28;20486;-70
2023/01/09 09:27:42;;;;;;;58.50;3.20;;;;;;;;;;5053746;28;20454;-70
2023/01/09 09:30:09;;;;;;;61.80;2.83;;;;;;;;;;5052506;28;20488;-70
2023/01/09 09:32:38;;;;;;;58.87;3.20;;;;;;;;;;5052820;28;20840;-70
2023/01/09 09:35:06;;;;;;;57.63;2.60;;;;;;;;;;5053376;28;20455;-70
2023/01/09 09:37:33;;;;;;;61.27;3.50;;;;;;;;;;5053318;28;20833;-70
2023/01/09 09:40:01;;;;;;;62.87;4.30;;;;;;;;;;5050083;28;20449;-70
2023/01/09 09:45:35;;;;;;;63.00;2.80;;;;;;;;;;5053165;28;20885;-70
2023/01/09 09:48:10;;;;;;;58.80;3.17;;;;;;;;;;5052955;28;20462;-70
2023/01/09 09:51:00;;;;;;;60.10;3.10;;;;;;;;;;5052136;28;20444;-70
2023/01/09 09:53:29;;;;;;;62.23;2.70;;;;;;;;;;5053048;28;20468;-70
2023/01/09 09:55:56;;;;;;;59.37;2.93;;;;;;;;;;5053044;28;20937;-70
2023/01/09 09:58:26;;;;;;;58.93;3.03;;;;;;;;;;5052954;28;20448;-70
2023/01/09 10:00:54;;;;;;;58.50;3.10;;;;;;;;;;5051287;28;20462;-70
2023/01/09 10:03:27;;;;;;;57.87;2.80;;;;;;;;;;5052556;28;20773;-70
2023/01/09 10:05:54;;;;;;;58.90;3.00;;;;;;;;;;5052922;28;20490;-70
2023/01/09 10:08:28;;;;;;;57.50;2.47;;;;;;;;;;5052656;28;20456;-70
2023/01/09 10:10:55;;;;;;;63.10;3.40;;;;;;;;;;5052199;28;20945;-70
2023/01/09 10:16:12;;;;;;;59.60;2.97;;;;;;;;;;5072799;28;20516;-70
2023/01/09 10:18:47;;;;;;;56.37;2.37;;;;;;;;;;5072020;28;20439;-70
2023/01/09 10:21:16;;;;;;;60.90;3.03;;;;;;;;;;5072443;28;20443;-70
2023/01/09 10:23:52;;;;;;;58.40;2.43;;;;;;;;;;5072409;28;20449;-70
2023/01/09 10:26:22;;;;;;;59.67;2.70;;;;;;;;;;5072070;28;20461;-70
2023/01/09 10:29:05;;;;;;;59.50;2.60;;;;;;;;;;5071569;28;20488;-70
2023/01/09 10:31:35;;;;;;;58.30;2.77;;;;;;;;;;5072099;28;20475;-70
2023/01/09 10:34:08;;;;;;;58.73;2.70;;;;;;;;;;5071921;28;20443;-70
2023/01/09 10:36:44;;;;;;;60.30;2.73;;;;;;;;;;5071959;28;20458;-70
2023/01/09 10:39:13;;;;;;;62.20;3.30;;;;;;;;;;5071637;28;20444;-70
2023/01/09 10:41:42;;;;;;;59.90;3.10;;;;;;;;;;5072204;28;20490;-70
2023/01/09 10:44:16;;;;;;;59.07;2.50;;;;;;;;;;5069264;28;20814;-70
2023/01/09 10:46:45;;;;;;;60.67;2.73;;;;;;;;;;5071978;28;20555;-70
2023/01/09 10:49:16;;;;;;;58.70;3.07;;;;;;;;;;5070918;28;20522;-70
2023/01/09 10:51:47;;;;;;;57.90;2.60;;;;;;;;;;5071883;28;20475;-70
2023/01/09 10:54:17;;;;;;;60.97;4.17;;;;;;;;;;5071303;28;20443;-70
2023/01/09 10:56:46;;;;;;;62.50;2.80;;;;;;;;;;5071968;28;20458;-70
2023/01/09 10:59:13;;;;;;;63.57;3.40;;;;;;;;;;5071133;28;20443;-70
2023/01/09 11:01:42;;;;;;;61.37;3.93;;;;;;;;;;5071492;28;20554;-70
2023/01/09 11:04:18;;;;;;;58.40;3.00;;;;;;;;;;5071780;28;20450;-70
2023/01/09 11:06:48;;;;;;;62.87;3.43;;;;;;;;;;5071863;28;20465;-70
2023/01/09 11:09:15;;;;;;;58.57;3.13;;;;;;;;;;5070945;28;20582;-70
2023/01/09 11:11:44;;;;;;;60.10;3.00;;;;;;;;;;5071356;28;20570;-70
2023/01/09 11:14:15;;;;;;;58.60;2.77;;;;;;;;;;5070441;28;20543;-70
2023/01/09 11:16:51;;;;;;;60.13;2.80;;;;;;;;;;5068408;28;20459;-70
2023/01/09 11:19:18;;;;;;;61.03;3.10;;;;;;;;;;5070889;28;20443;-70
2023/01/09 11:21:47;;;;;;;59.07;2.63;;;;;;;;;;5071750;28;20835;-70
2023/01/09 11:24:26;;;;;;;59.70;2.40;;;;;;;;;;5071463;28;20825;-70
2023/01/09 11:26:54;;;;;;;60.47;2.70;;;;;;;;;;5071766;28;20455;-70
2023/01/09 11:29:23;;;;;;;59.63;3.57;;;;;;;;;;5070883;28;20493;-70
2023/01/09 11:31:52;;;;;;;61.20;2.93;;;;;;;;;;5071557;28;20832;-70
2023/01/09 11:34:19;;;;;;;60.87;3.33;;;;;;;;;;5071077;28;20461;-70
2023/01/09 11:36:48;;;;;;;60.87;3.10;;;;;;;;;;5071339;28;20447;-70
2023/01/09 11:39:22;;;;;;;57.87;2.70;;;;;;;;;;5070555;28;20772;-70
2023/01/09 11:41:53;;;;;;;60.27;3.23;;;;;;;;;;5071507;28;20474;-70
2023/01/09 11:44:20;;;;;;;61.50;2.53;;;;;;;;;;5071438;28;20826;-69
2023/01/09 11:46:47;;;;;;;60.33;3.50;;;;;;;;;;5062340;28;20839;-69
2023/01/09 11:49:21;;;;;;;59.83;2.83;;;;;;;;;;5050498;28;20492;-69
2023/01/09 11:52:04;;;;;;;63.77;3.17;;;;;;;;;;5051305;28;20561;-69
2023/01/09 11:54:33;;;;;;;60.50;3.30;;;;;;;;;;5050859;28;20455;-69
2023/01/09 11:57:00;;;;;;;60.70;2.93;;;;;;;;;;5051280;28;20480;-70
2023/01/09 11:59:29;;;;;;;66.83;3.50;;;;;;;;;;5050439;28;20448;-69
2023/01/09 12:02:05;;;;;;;58.67;2.80;;;;;;;;;;5051241;28;20479;-69
2023/01/09 12:04:34;;;;;;;60.17;2.80;;;;;;;;;;5051426;28;20966;-69
2023/01/09 12:07:26;;;;;;;61.30;3.20;;;;;;;;;;5051045;28;20545;-70
2023/01/09 12:09:58;;;;;;;58.30;3.00;;;;;;;;;;5050404;28;20571;-69
2023/01/09 12:12:28;;;;;;;59.87;3.23;;;;;;;;;;5050854;28;20468;-70
2023/01/09 12:15:03;;;;;;;58.57;2.90;;;;;;;;;;5050729;28;20499;-69
2023/01/09 12:17:40;;;;;;;59.07;3.17;;;;;;;;;;5051117;28;20824;-69
2023/01/09 12:20:16;;;;;;;60.13;3.00;;;;;;;;;;5050312;28;20444;-69
2023/01/09 12:22:48;;;;;;;59.37;2.50;;;;;;;;;;5050905;28;20901;-70
2023/01/09 12:25:24;;;;;;;59.77;3.17;;;;;;;;;;5054337;28;20518;-70
2023/01/09 12:27:58;;;;;;;60.33;3.17;;;;;;;;;;5054653;28;20450;-70
2023/01/09 12:30:32;;;;;;;61.87;3.20;;;;;;;;;;5054043;28;20483;-70
2023/01/09 12:33:13;;;;;;;61.27;2.90;;;;;;;;;;5054534;28;20981;-70
2023/01/09 12:35:42;;;;;;;61.40;3.30;;;;;;;;;;5054181;28;20475;-69
2023/01/09 12:38:16;;;;;;;60.47;3.27;;;;;;;;;;5054517;28;20937;-70
2023/01/09 12:40:48;;;;;;;60.07;2.60;;;;;;;;;;5053689;28;20436;-70
2023/01/09 12:43:19;;;;;;;59.60;3.00;;;;;;;;;;5053841;28;20476;-70
2023/01/09 12:45:54;;;;;;;60.80;3.17;;;;;;;;;;5054447;28;20452;-70
2023/01/09 12:48:29;;;;;;;63.50;3.20;;;;;;;;;;5053805;28;20464;-69
2023/01/09 12:51:11;;;;;;;62.03;3.33;;;;;;;;;;5067263;28;20486;-70
2023/01/09 12:53:41;;;;;;;63.27;3.27;;;;;;;;;;5071834;28;20547;-69
2023/01/09 12:56:11;;;;;;;59.37;3.00;;;;;;;;;;5073373;28;20461;-70
2023/01/09 12:58:41;;;;;;;58.53;2.60;;;;;;;;;;5073388;28;20470;-69
2023/01/09 13:01:11;;;;;;;59.57;2.80;;;;;;;;;;5074135;28;20508;-70
2023/01/09 13:03:40;;;;;;;58.80;3.00;;;;;;;;;;5074147;28;20466;-71
2023/01/09 13:06:08;;;;;;;60.80;2.97;;;;;;;;;;5073892;28;20458;-69
2023/01/09 13:08:38;;;;;;;60.40;2.73;;;;;;;;;;5073033;28;20450;-70
2023/01/09 13:11:09;;;;;;;59.20;3.10;;;;;;;;;;5073583;28;20875;-71
2023/01/09 13:13:42;;;;;;;59.07;2.53;;;;;;;;;;5073573;28;20457;-69
2023/01/09 13:16:13;;;;;;;60.37;3.07;;;;;;;;;;5073560;28;20449;-69
2023/01/09 13:18:42;;;;;;;60.00;3.33;;;;;;;;;;5073004;28;20550;-70
2023/01/09 13:21:10;;;;;;;58.10;2.90;;;;;;;;;;5073704;28;20440;-70
2023/01/09 13:23:42;;;;;;;59.17;3.40;;;;;;;;;;5073830;28;20458;-69
2023/01/09 13:26:12;;;;;;;58.73;2.73;;;;;;;;;;5073400;28;20458;-69
2023/01/09 13:28:42;;;;;;;61.70;2.80;;;;;;;;;;5072802;28;20821;-69
2023/01/09 13:31:17;;;;;;;58.97;2.63;;;;;;;;;;5073470;28;20510;-68
2023/01/09 13:33:45;;;;;;;57.07;2.60;;;;;;;;;;5073443;28;20525;-69
2023/01/09 13:36:21;;;;;;;58.60;2.80;;;;;;;;;;5073203;28;20454;-68
2023/01/09 13:38:49;;;;;;;59.20;3.80;;;;;;;;;;5072417;28;20443;-69
2023/01/09 13:44:06;;;;;;;60.10;3.23;;;;;;;;;;5073360;28;20423;-69
2023/01/09 13:46:34;;;;;;;58.40;3.13;;;;;;;;;;5073655;28;20512;-68
2023/01/09 13:49:02;;;;;;;58.67;2.93;;;;;;;;;;5072409;28;20530;-68
2023/01/09 13:51:53;;;;;;;56.77;2.33;;;;;;;;;;5073113;28;20494;-70
2023/01/09 13:54:35;;;;;;;59.77;2.77;;;;;;;;;;5072837;28;20447;-69
2023/01/09 13:57:25;;;;;;;58.67;2.53;;;;;;;;;;5072563;28;20546;-69
2023/01/09 13:59:56;;;;;;;61.23;3.77;;;;;;;;;;5072143;28;20928;-69
2023/01/09 14:02:43;;;;;;;57.97;2.70;;;;;;;;;;5072996;28;20601;-69
2023/01/09 14:05:11;;;;;;;60.17;2.60;;;;;;;;;;5072797;28;20500;-69
2023/01/09 14:07:40;;;;;;;61.70;2.80;;;;;;;;;;5073083;28;20455;-69
2023/01/09 14:10:09;;;;;;;57.27;3.20;;;;;;;;;;5071989;28;20475;-69
2023/01/09 14:12:41;;;;;;;58.83;2.77;;;;;;;;;;5072530;28;20519;-69
2023/01/09 14:15:23;;;;;;;57.87;2.60;;;;;;;;;;5072383;28;20957;-69
2023/01/09 14:17:59;;;;;;;60.37;3.50;;;;;;;;;;5072535;28;20462;-69
2023/01/09 14:20:28;;;;;;;59.90;2.90;;;;;;;;;;5071945;28;20450;-69
2023/01/09 14:22:57;;;;;;;58.10;2.90;;;;;;;;;;5072497;28;20507;-69
2023/01/09 14:25:26;;;;;;;58.67;2.80;;;;;;;;;;5072403;28;20455;-70
2023/01/09 14:28:21;;;;;;;57.37;2.60;;;;;;;;;;5072513;28;20435;-69
2023/01/09 14:31:05;;;;;;;57.80;2.43;;;;;;;;;;5071814;28;20608;-69
2023/01/09 14:33:32;;;;;;;58.77;2.60;;;;;;;;;;5072270;28;20973;-68
2023/01/09 14:36:05;;;;;;;59.67;3.70;;;;;;;;;;5071882;28;20543;-69
2023/01/09 14:38:34;;;;;;;59.93;3.00;;;;;;;;;;5071637;28;20443;-69
2023/01/09 14:41:04;;;;;;;57.80;2.87;;;;;;;;;;5072182;28;20446;-69
2023/01/09 14:43:42;;;;;;;63.50;5.73;;;;;;;;;;5072179;28;20985;-69
2023/01/09 14:46:12;;;;;;;58.47;2.70;;;;;;;;;;5071670;28;20447;-68
2023/01/09 14:48:42;;;;;;;57.17;2.30;;;;;;;;;;5071359;28;20447;-68
2023/01/09 14:51:15;;;;;;;61.10;2.83;;;;;;;;;;5072062;28;20855;-69
2023/01/09 14:53:43;;;;;;;57.07;2.50;;;;;;;;;;5072273;28;20462;-68
2023/01/09 14:56:24;;;;;;;60.03;2.80;;;;;;;;;;5071432;28;20462;-69
2023/01/09 14:59:03;;;;;;;60.90;3.20;;;;;;;;;;5071045;28;20454;-68
2023/01/09 15:01:31;;;;;;;58.93;3.70;;;;;;;;;;5071956;28;20464;-69